createdAt,value
2023-03-29T00:02:33.486Z,101313.97
2023-03-29T00:05:04.997Z,101309.81
2023-03-29T00:07:33.491Z,101307.94
2023-03-29T00:10:01.817Z,101306.06
2023-03-29T00:12:28.615Z,101309.97
2023-03-29T00:14:55.169Z,101306.16
2023-03-29T00:17:21.625Z,101292.34
2023-03-29T00:19:48.112Z,101291.06
2023-03-29T00:22:14.590Z,101294.06
2023-03-29T00:24:41.385Z,101283.78
2023-03-29T00:27:07.888Z,101270.94
2023-03-29T00:29:34.446Z,101276.75
2023-03-29T00:32:00.910Z,101275.72
2023-03-29T00:34:30.738Z,101273.69
2023-03-29T00:36:58.219Z,101273.56
2023-03-29T00:39:26.330Z,101267.53
2023-03-29T00:41:53.008Z,101265.78
2023-03-29T00:44:57.253Z,101264.00
2023-03-29T00:47:42.224Z,101259.59
2023-03-29T00:50:37.868Z,101251.97
2023-03-29T00:53:15.017Z,101256.22
2023-03-29T00:55:47.496Z,101248.69
2023-03-29T00:58:17.932Z,101245.03
2023-03-29T01:00:57.780Z,101245.03
2023-03-29T01:03:27.940Z,101237.25
2023-03-29T01:06:00.061Z,101236.25
2023-03-29T01:08:31.863Z,101223.59
2023-03-29T01:11:06.982Z,101225.97
2023-03-29T01:13:44.617Z,101213.91
2023-03-29T01:16:13.978Z,101210.22
2023-03-29T01:18:41.822Z,101206.47
2023-03-29T01:24:25.105Z,101203.03
2023-03-29T01:27:05.402Z,101200.13
2023-03-29T01:29:39.004Z,101195.19
2023-03-29T01:32:14.738Z,101194.31
2023-03-29T01:34:49.821Z,101183.16
2023-03-29T01:37:29.119Z,101185.69
2023-03-29T01:39:55.583Z,101177.88
2023-03-29T01:42:35.684Z,101173.22
2023-03-29T01:45:13.278Z,101174.56
2023-03-29T01:48:00.521Z,101174.31
2023-03-29T01:50:35.906Z,101166.66
2023-03-29T01:53:17.520Z,101165.50
2023-03-29T01:55:50.529Z,101164.38
2023-03-29T01:58:18.794Z,101154.19
2023-03-29T02:00:46.212Z,101153.94
2023-03-29T02:03:14.839Z,101150.28
2023-03-29T02:05:42.992Z,101146.75
2023-03-29T02:08:12.688Z,101137.22
2023-03-29T02:10:39.886Z,101132.97
2023-03-29T02:13:06.573Z,101127.69
2023-03-29T02:15:33.350Z,101130.78
2023-03-29T02:18:00.071Z,101126.28
2023-03-29T02:20:38.885Z,101117.75
2023-03-29T02:23:27.309Z,101117.34
2023-03-29T02:25:56.835Z,101116.19
2023-03-29T02:28:24.727Z,101115.94
2023-03-29T02:30:57.101Z,101113.03
2023-03-29T02:33:34.174Z,101107.63
2023-03-29T02:36:06.401Z,101108.09
2023-03-29T02:38:34.045Z,101113.09
2023-03-29T02:41:01.463Z,101102.69
2023-03-29T02:43:29.402Z,101110.91
2023-03-29T02:45:56.431Z,101109.78
2023-03-29T02:48:26.914Z,101102.84
2023-03-29T02:50:57.933Z,101102.44
2023-03-29T02:53:31.996Z,101099.06
2023-03-29T02:56:02.065Z,101090.69
2023-03-29T02:58:28.798Z,101094.81
2023-03-29T03:00:58.893Z,101086.91
2023-03-29T03:03:26.168Z,101080.88
2023-03-29T03:05:53.809Z,101076.50
2023-03-29T03:08:20.645Z,101087.22
2023-03-29T03:10:47.640Z,101067.56
2023-03-29T03:13:14.303Z,101075.06
2023-03-29T03:15:42.711Z,101074.16
2023-03-29T03:18:10.415Z,101074.78
2023-03-29T03:20:37.172Z,101068.03
2023-03-29T03:23:03.814Z,101064.50
2023-03-29T03:25:30.414Z,101056.75
2023-03-29T03:27:57.153Z,101055.13
2023-03-29T03:30:23.832Z,101051.75
2023-03-29T03:32:50.553Z,101047.47
2023-03-29T03:35:17.955Z,101056.59
2023-03-29T03:37:45.151Z,101048.94
2023-03-29T03:40:13.569Z,101053.06
2023-03-29T03:42:42.799Z,101051.31
2023-03-29T03:45:10.579Z,101048.81
2023-03-29T03:47:40.184Z,101053.06
2023-03-29T03:50:08.481Z,101044.69
2023-03-29T03:52:35.124Z,101044.69
2023-03-29T03:55:02.770Z,101058.94
2023-03-29T03:57:29.616Z,101049.81
2023-03-29T03:59:56.419Z,101053.94
2023-03-29T04:02:23.300Z,101051.44
2023-03-29T04:04:50.024Z,101048.06
2023-03-29T04:07:17.707Z,101040.56
2023-03-29T04:09:45.020Z,101039.97
2023-03-29T04:12:12.026Z,101045.22
2023-03-29T04:14:38.714Z,101041.38
2023-03-29T04:17:05.609Z,101044.75
2023-03-29T04:19:32.484Z,101038.13
2023-03-29T04:21:59.195Z,101038.25
2023-03-29T04:24:26.016Z,101044.28
2023-03-29T04:26:52.651Z,101033.56
2023-03-29T04:29:19.313Z,101032.03
2023-03-29T04:31:46.066Z,101028.03
2023-03-29T04:34:12.820Z,101028.19
2023-03-29T04:36:39.524Z,101026.56
2023-03-29T04:39:07.832Z,101020.69
2023-03-29T04:41:35.014Z,101025.06
2023-03-29T04:44:02.478Z,101024.34
2023-03-29T04:46:30.406Z,101023.59
2023-03-29T04:48:57.324Z,101022.84
2023-03-29T04:51:24.376Z,101014.72
2023-03-29T04:53:51.135Z,101027.25
2023-03-29T04:56:17.828Z,101019.13
2023-03-29T04:58:44.512Z,101014.59
2023-03-29T05:01:11.404Z,101018.09
2023-03-29T05:03:38.409Z,101016.75
2023-03-29T05:06:07.358Z,101008.50
2023-03-29T05:08:35.242Z,101012.88
2023-03-29T05:11:02.028Z,101013.03
2023-03-29T05:13:28.888Z,101014.78
2023-03-29T05:15:57.038Z,101014.91
2023-03-29T05:18:23.749Z,101015.06
2023-03-29T05:20:52.951Z,101003.56
2023-03-29T05:23:20.217Z,100995.44
2023-03-29T05:25:51.100Z,101002.31
2023-03-29T05:28:18.306Z,100996.69
2023-03-29T05:30:45.854Z,100997.56
2023-03-29T05:33:12.688Z,101003.72
2023-03-29T05:35:39.731Z,100997.94
2023-03-29T05:38:06.557Z,100996.59
2023-03-29T05:40:33.560Z,100995.13
2023-03-29T05:43:02.392Z,100993.72
2023-03-29T05:45:29.765Z,100997.38
2023-03-29T05:47:57.571Z,100987.63
2023-03-29T05:50:24.690Z,100974.63
2023-03-29T05:52:51.537Z,100980.78
2023-03-29T05:55:18.440Z,100981.03
2023-03-29T05:57:45.137Z,100974.75
2023-03-29T06:00:17.640Z,100984.44
2023-03-29T06:02:44.323Z,100976.28
2023-03-29T06:05:11.051Z,100982.84
2023-03-29T06:07:38.385Z,100984.09
2023-03-29T06:10:06.271Z,100985.47
2023-03-29T06:12:33.032Z,100982.72
2023-03-29T06:15:04.690Z,100975.34
2023-03-29T06:17:33.550Z,100976.88
2023-03-29T06:20:00.920Z,100974.97
2023-03-29T06:22:27.813Z,100960.81
2023-03-29T06:24:54.590Z,100971.72
2023-03-29T06:27:21.205Z,100967.31
2023-03-29T06:29:48.127Z,100965.22
2023-03-29T06:32:14.746Z,100963.19
2023-03-29T06:34:41.507Z,100961.94
2023-03-29T06:37:08.501Z,100969.19
2023-03-29T06:39:35.140Z,100963.78
2023-03-29T06:42:10.111Z,100950.72
2023-03-29T06:44:43.949Z,100957.13
2023-03-29T06:47:10.719Z,100955.84
2023-03-29T06:49:37.600Z,100957.47
2023-03-29T06:52:04.510Z,100959.69
2023-03-29T06:54:33.542Z,100957.78
2023-03-29T06:57:00.757Z,100961.25
2023-03-29T06:59:27.456Z,100972.88
2023-03-29T07:01:54.685Z,100971.22
2023-03-29T07:04:23.455Z,100977.06
2023-03-29T07:07:01.172Z,100968.72
2023-03-29T07:09:32.215Z,100967.78
2023-03-29T07:11:59.544Z,100970.78
2023-03-29T07:14:28.817Z,100976.84
2023-03-29T07:16:56.772Z,100978.31
2023-03-29T07:19:25.180Z,100969.78
2023-03-29T07:21:53.265Z,100971.25
2023-03-29T07:24:21.282Z,100968.53
2023-03-29T07:27:00.256Z,100964.94
2023-03-29T07:29:29.584Z,100962.09
2023-03-29T07:31:56.429Z,100957.84
2023-03-29T07:34:22.928Z,100962.56
2023-03-29T07:36:49.391Z,100958.31
2023-03-29T07:39:15.902Z,100960.28
2023-03-29T07:41:42.403Z,100961.47
2023-03-29T07:44:09.314Z,100958.31
2023-03-29T07:46:36.892Z,100964.78
2023-03-29T07:49:04.224Z,100967.41
2023-03-29T07:51:31.227Z,100969.59
2023-03-29T07:53:57.701Z,100976.06
2023-03-29T07:56:24.774Z,100967.28
2023-03-29T07:58:51.705Z,100967.94
2023-03-29T08:01:19.899Z,100956.72
2023-03-29T08:03:46.660Z,100958.66
2023-03-29T08:06:13.280Z,100960.28
2023-03-29T08:08:39.807Z,100954.13
2023-03-29T08:11:08.941Z,100948.09
2023-03-29T08:13:35.943Z,100947.38
2023-03-29T08:16:02.387Z,100939.00
2023-03-29T08:18:28.872Z,100944.09
2023-03-29T08:20:55.327Z,100945.75
2023-03-29T08:23:21.856Z,100942.38
2023-03-29T08:25:48.281Z,100939.56
2023-03-29T08:28:14.750Z,100939.06
2023-03-29T08:30:41.984Z,100933.75
2023-03-29T08:33:08.880Z,100929.78
2023-03-29T08:35:35.632Z,100927.94
2023-03-29T08:38:02.148Z,100932.59
2023-03-29T08:40:30.221Z,100922.66
2023-03-29T08:43:08.194Z,100923.53
2023-03-29T08:45:51.334Z,100915.88
2023-03-29T08:48:34.996Z,100914.41
2023-03-29T08:51:09.326Z,100921.13
2023-03-29T08:53:44.104Z,100905.50
2023-03-29T08:56:34.203Z,100916.63
2023-03-29T08:59:01.186Z,100919.38
2023-03-29T09:01:35.281Z,100922.78
2023-03-29T09:04:09.798Z,100920.34
2023-03-29T09:06:39.389Z,100917.03
2023-03-29T09:09:13.150Z,100920.53
2023-03-29T09:11:46.301Z,100917.50
2023-03-29T09:14:36.487Z,100918.56
2023-03-29T09:17:28.009Z,100911.56
2023-03-29T09:20:24.920Z,100916.31
2023-03-29T09:23:18.124Z,100907.56
2023-03-29T09:25:57.956Z,100909.03
2023-03-29T09:28:33.336Z,100911.66
2023-03-29T09:31:13.469Z,100913.41
2023-03-29T09:33:44.943Z,100898.16
2023-03-29T09:36:17.133Z,100907.28
2023-03-29T09:38:47.807Z,100893.84
2023-03-29T09:41:29.384Z,100901.69
2023-03-29T09:44:00.386Z,100900.25
2023-03-29T09:46:34.255Z,100893.31
2023-03-29T09:49:03.992Z,100892.03
2023-03-29T09:51:32.866Z,100887.31
2023-03-29T09:54:00.618Z,100878.84
2023-03-29T09:56:28.621Z,100874.25
2023-03-29T09:58:55.194Z,100865.34
2023-03-29T10:01:21.900Z,100881.09
2023-03-29T10:03:53.252Z,100873.66
2023-03-29T10:06:24.028Z,100880.56
2023-03-29T10:08:57.557Z,100874.88
2023-03-29T10:11:35.534Z,100870.09
2023-03-29T10:14:22.854Z,100875.97
2023-03-29T10:16:56.461Z,100872.25
2023-03-29T10:19:26.998Z,100876.47
2023-03-29T10:21:55.059Z,100878.28
2023-03-29T10:24:24.003Z,100881.00
2023-03-29T10:27:07.779Z,100877.25
2023-03-29T10:29:42.322Z,100871.50
2023-03-29T10:32:17.370Z,100868.53
2023-03-29T10:34:47.275Z,100872.88
2023-03-29T10:37:16.508Z,100869.56
2023-03-29T10:39:43.259Z,100884.41
2023-03-29T10:42:14.610Z,100864.16
2023-03-29T10:44:41.211Z,100870.00
2023-03-29T10:47:19.499Z,100877.94
2023-03-29T10:49:58.717Z,100877.59
2023-03-29T10:52:25.836Z,100882.22
2023-03-29T10:54:55.335Z,100882.44
2023-03-29T10:57:34.142Z,100880.56
2023-03-29T11:00:34.221Z,100869.88
2023-03-29T11:03:25.697Z,100865.06
2023-03-29T11:05:59.360Z,100856.34
2023-03-29T11:08:48.621Z,100848.53
2023-03-29T11:11:27.254Z,100850.72
2023-03-29T11:14:04.445Z,100849.75
2023-03-29T11:16:42.611Z,100856.72
2023-03-29T11:19:22.969Z,100861.19
2023-03-29T11:22:02.990Z,100861.38
2023-03-29T11:25:03.639Z,100853.94
2023-03-29T11:27:33.052Z,100853.31
2023-03-29T11:30:13.462Z,100849.81
2023-03-29T11:32:51.372Z,100852.66
2023-03-29T11:35:39.729Z,100846.97
2023-03-29T11:38:45.110Z,100858.56
2023-03-29T11:41:18.796Z,100848.31
2023-03-29T11:44:06.082Z,100849.13
2023-03-29T11:46:39.036Z,100838.69
2023-03-29T11:49:13.806Z,100838.44
2023-03-29T11:51:51.984Z,100824.66
2023-03-29T11:54:30.819Z,100837.66
2023-03-29T11:57:04.245Z,100842.88
2023-03-29T11:59:42.488Z,100842.97
2023-03-29T12:02:22.447Z,100842.59
2023-03-29T12:04:54.663Z,100841.38
2023-03-29T12:08:07.687Z,100835.13
2023-03-29T12:10:43.247Z,100836.56
2023-03-29T12:13:19.112Z,100831.53
2023-03-29T12:15:48.239Z,100831.31
2023-03-29T12:18:20.035Z,100831.94
2023-03-29T12:20:57.825Z,100830.81
2023-03-29T12:23:24.470Z,100825.50
2023-03-29T12:26:19.749Z,100843.03
2023-03-29T12:29:08.290Z,100831.94
2023-03-29T12:31:52.271Z,100827.63
2023-03-29T12:34:30.836Z,100835.44
2023-03-29T12:37:17.598Z,100822.09
2023-03-29T12:39:44.556Z,100818.44
2023-03-29T12:42:17.658Z,100813.84
2023-03-29T12:44:58.558Z,100801.03
2023-03-29T12:47:32.112Z,100804.56
2023-03-29T12:50:00.629Z,100804.50
2023-03-29T12:52:32.724Z,100801.09
2023-03-29T12:55:01.953Z,100809.63
2023-03-29T12:57:39.940Z,100808.88
2023-03-29T13:00:22.424Z,100800.84
2023-03-29T13:03:19.581Z,100811.59
2023-03-29T13:05:46.856Z,100812.09
2023-03-29T13:08:27.574Z,100807.75
2023-03-29T13:10:56.160Z,100807.75
2023-03-29T13:13:27.817Z,100814.03
2023-03-29T13:15:54.774Z,100803.53
2023-03-29T13:18:40.252Z,100811.50
2023-03-29T13:21:28.085Z,100804.84
2023-03-29T13:24:16.725Z,100803.34
2023-03-29T13:26:57.579Z,100796.59
2023-03-29T13:29:26.755Z,100799.25
2023-03-29T13:32:16.758Z,100796.66
2023-03-29T13:34:52.243Z,100790.78
2023-03-29T13:37:40.743Z,100792.53
2023-03-29T13:40:42.914Z,100791.44
2023-03-29T13:43:23.400Z,100786.22
2023-03-29T13:45:58.803Z,100780.31
2023-03-29T13:48:46.651Z,100770.25
2023-03-29T13:51:13.074Z,100765.41
2023-03-29T13:54:01.609Z,100753.72
2023-03-29T13:56:35.854Z,100755.53
2023-03-29T13:59:12.116Z,100750.75
2023-03-29T14:01:49.159Z,100747.50
2023-03-29T14:04:23.793Z,100751.72
2023-03-29T14:06:54.056Z,100750.59
2023-03-29T14:09:25.952Z,100752.34
2023-03-29T14:11:53.111Z,100753.88
2023-03-29T14:14:26.264Z,100757.28
2023-03-29T14:16:55.185Z,100760.72
2023-03-29T14:19:32.517Z,100750.69
2023-03-29T14:22:01.594Z,100750.75
2023-03-29T14:24:37.533Z,100747.53
2023-03-29T14:27:05.791Z,100743.75
2023-03-29T14:29:34.005Z,100744.16
2023-03-29T14:32:18.292Z,100737.06
2023-03-29T14:34:49.456Z,100739.16
2023-03-29T14:37:22.785Z,100732.66
2023-03-29T14:39:50.125Z,100727.66
2023-03-29T14:42:21.258Z,100729.53
2023-03-29T14:44:49.570Z,100734.56
2023-03-29T14:47:34.711Z,100734.19
2023-03-29T14:50:01.759Z,100736.53
2023-03-29T14:52:30.307Z,100737.25
2023-03-29T14:55:00.206Z,100735.44
2023-03-29T14:57:32.813Z,100733.78
2023-03-29T15:00:05.064Z,100729.56
2023-03-29T15:02:33.380Z,100723.81
2023-03-29T15:05:03.303Z,100717.13
2023-03-29T15:07:32.288Z,100722.50
2023-03-29T15:10:00.551Z,100717.56
2023-03-29T15:12:32.263Z,100710.13
2023-03-29T15:15:00.315Z,100713.56
2023-03-29T15:17:50.320Z,100709.34
2023-03-29T15:20:24.051Z,100711.16
2023-03-29T15:23:07.466Z,100705.13
2023-03-29T15:25:37.226Z,100704.19
2023-03-29T15:28:04.582Z,100705.94
2023-03-29T15:30:38.599Z,100698.31
2023-03-29T15:33:19.097Z,100697.41
2023-03-29T15:35:50.419Z,100705.13
2023-03-29T15:38:17.976Z,100691.56
2023-03-29T15:40:44.970Z,100693.34
2023-03-29T15:43:12.269Z,100686.47
2023-03-29T15:45:38.986Z,100681.44
2023-03-29T15:48:21.581Z,100683.19
2023-03-29T15:50:49.189Z,100677.28
2023-03-29T15:53:17.094Z,100666.25
2023-03-29T15:55:50.596Z,100664.59
2023-03-29T15:58:20.477Z,100666.25
2023-03-29T16:00:54.844Z,100662.75
2023-03-29T16:03:22.276Z,100660.91
2023-03-29T16:05:49.199Z,100660.84
2023-03-29T16:08:15.919Z,100668.97
2023-03-29T16:10:43.853Z,100661.31
2023-03-29T16:13:13.741Z,100661.16
2023-03-29T16:15:41.801Z,100661.78
2023-03-29T16:18:09.090Z,100660.09
2023-03-29T16:20:36.010Z,100663.38
2023-03-29T16:23:08.616Z,100663.38
2023-03-29T16:25:38.402Z,100664.19
2023-03-29T16:28:07.562Z,100659.91
2023-03-29T16:30:35.652Z,100661.50
2023-03-29T16:33:06.190Z,100664.03
2023-03-29T16:35:35.564Z,100667.31
2023-03-29T16:38:02.359Z,100675.75
2023-03-29T16:40:29.121Z,100672.09
2023-03-29T16:42:55.821Z,100666.91
2023-03-29T16:45:23.102Z,100661.63
2023-03-29T16:47:50.014Z,100670.00
2023-03-29T16:50:18.853Z,100661.22
2023-03-29T16:52:47.818Z,100665.50
2023-03-29T16:55:15.663Z,100666.97
2023-03-29T16:57:42.513Z,100660.00
2023-03-29T17:00:15.782Z,100668.34
2023-03-29T17:02:43.455Z,100662.16
2023-03-29T17:05:11.704Z,100668.06
2023-03-29T17:07:43.028Z,100664.56
2023-03-29T17:10:10.883Z,100656.66
2023-03-29T17:12:37.710Z,100665.09
2023-03-29T17:15:05.919Z,100666.47
2023-03-29T17:17:32.570Z,100663.94
2023-03-29T17:19:59.145Z,100651.91
2023-03-29T17:22:25.930Z,100651.75
2023-03-29T17:24:52.404Z,100652.53
2023-03-29T17:27:18.987Z,100654.13
2023-03-29T17:29:45.551Z,100651.47
2023-03-29T17:32:12.045Z,100652.19
2023-03-29T17:34:38.828Z,100652.84
2023-03-29T17:37:05.288Z,100653.56
2023-03-29T17:39:33.050Z,100650.88
2023-03-29T17:41:59.641Z,100659.16
2023-03-29T17:44:26.881Z,100665.88
2023-03-29T17:46:53.396Z,100656.53
2023-03-29T17:49:19.897Z,100653.78
2023-03-29T17:51:46.455Z,100647.75
2023-03-29T17:54:12.976Z,100645.84
2023-03-29T17:56:39.534Z,100644.03
2023-03-29T17:59:05.985Z,100645.53
2023-03-29T18:01:32.758Z,100642.88
2023-03-29T18:03:59.318Z,100642.72
2023-03-29T18:06:25.815Z,100645.97
2023-03-29T18:08:53.189Z,100655.19
2023-03-29T18:11:25.512Z,100644.09
2023-03-29T18:13:52.986Z,100639.66
2023-03-29T18:16:21.242Z,100642.97
2023-03-29T18:18:48.278Z,100627.63
2023-03-29T18:21:16.452Z,100630.81
2023-03-29T18:23:47.494Z,100636.72
2023-03-29T18:26:16.314Z,100634.06
2023-03-29T18:28:46.523Z,100639.00
2023-03-29T18:31:13.093Z,100635.31
2023-03-29T18:33:39.534Z,100643.75
2023-03-29T18:36:10.838Z,100645.41
2023-03-29T18:38:40.373Z,100643.50
2023-03-29T18:41:08.368Z,100645.97
2023-03-29T18:43:35.874Z,100647.53
2023-03-29T18:46:03.410Z,100646.53
2023-03-29T18:48:30.451Z,100645.41
2023-03-29T18:50:57.734Z,100648.84
2023-03-29T18:53:24.569Z,100643.69
2023-03-29T18:55:51.022Z,100642.72
2023-03-29T18:58:17.773Z,100640.91
2023-03-29T19:00:44.444Z,100643.22
2023-03-29T19:03:11.112Z,100640.59
2023-03-29T19:05:39.379Z,100647.31
2023-03-29T19:08:08.853Z,100636.97
2023-03-29T19:10:37.036Z,100633.38
2023-03-29T19:13:04.235Z,100631.56
2023-03-29T19:15:32.443Z,100623.88
2023-03-29T19:17:59.207Z,100625.47
2023-03-29T19:20:26.454Z,100622.78
2023-03-29T19:22:53.561Z,100620.25
2023-03-29T19:25:20.547Z,100627.75
2023-03-29T19:27:47.697Z,100627.69
2023-03-29T19:30:14.818Z,100612.25
2023-03-29T19:32:41.524Z,100619.91
2023-03-29T19:35:09.544Z,100620.63
2023-03-29T19:37:36.446Z,100615.50
2023-03-29T19:40:06.450Z,100612.72
2023-03-29T19:42:35.962Z,100609.06
2023-03-29T19:45:03.925Z,100621.91
2023-03-29T19:47:31.084Z,100609.94
2023-03-29T19:49:58.596Z,100608.03
2023-03-29T19:52:27.772Z,100608.81
2023-03-29T19:54:56.306Z,100601.06
2023-03-29T19:57:23.882Z,100595.03
2023-03-29T19:59:52.956Z,100595.13
2023-03-29T20:02:19.921Z,100587.28
2023-03-29T20:04:46.643Z,100584.75
2023-03-29T20:07:13.273Z,100573.59
2023-03-29T20:09:39.923Z,100579.69
2023-03-29T20:12:06.479Z,100578.66
2023-03-29T20:14:34.162Z,100577.84
2023-03-29T20:17:00.607Z,100574.31
2023-03-29T20:19:27.085Z,100577.81
2023-03-29T20:21:57.364Z,100569.97
2023-03-29T20:24:25.140Z,100564.97
2023-03-29T20:26:52.090Z,100558.09
2023-03-29T20:29:18.637Z,100561.66
2023-03-29T20:31:45.992Z,100543.63
2023-03-29T20:34:12.648Z,100548.81
2023-03-29T20:36:40.469Z,100546.38
2023-03-29T20:39:08.085Z,100542.19
2023-03-29T20:41:38.254Z,100545.44
2023-03-29T20:44:05.614Z,100546.25
2023-03-29T20:46:37.556Z,100541.09
2023-03-29T20:49:07.280Z,100533.41
2023-03-29T20:51:33.700Z,100530.00
2023-03-29T20:54:04.655Z,100530.81
2023-03-29T20:56:33.828Z,100528.19
2023-03-29T20:59:00.595Z,100523.84
2023-03-29T21:01:29.454Z,100521.31
2023-03-29T21:03:56.410Z,100528.97
2023-03-29T21:06:24.338Z,100524.63
2023-03-29T21:08:52.448Z,100517.84
2023-03-29T21:11:20.177Z,100518.69
2023-03-29T21:13:47.255Z,100522.81
2023-03-29T21:16:13.783Z,100510.16
2023-03-29T21:18:40.509Z,100508.44
2023-03-29T21:21:08.423Z,100510.16
2023-03-29T21:23:35.968Z,100507.53
2023-03-29T21:26:04.042Z,100507.53
2023-03-29T21:28:30.860Z,100493.97
2023-03-29T21:30:57.339Z,100494.72
2023-03-29T21:33:23.854Z,100505.66
2023-03-29T21:35:50.588Z,100497.13
2023-03-29T21:38:17.416Z,100498.94
2023-03-29T21:40:43.931Z,100485.00
2023-03-29T21:43:10.370Z,100491.25
2023-03-29T21:45:36.833Z,100474.97
2023-03-29T21:48:03.447Z,100469.09
2023-03-29T21:50:31.978Z,100468.97
2023-03-29T21:53:02.685Z,100462.41
2023-03-29T21:55:29.161Z,100444.38
2023-03-29T21:57:55.642Z,100447.91
2023-03-29T22:00:22.697Z,100446.19
2023-03-29T22:02:49.273Z,100443.75
2023-03-29T22:05:16.198Z,100442.63
2023-03-29T22:07:42.975Z,100447.78
2023-03-29T22:10:12.506Z,100438.47
2023-03-29T22:12:39.424Z,100436.78
2023-03-29T22:15:07.169Z,100434.34
2023-03-29T22:17:34.420Z,100425.00
2023-03-29T22:20:02.634Z,100425.88
2023-03-29T22:22:29.066Z,100426.66
2023-03-29T22:24:56.102Z,100415.84
2023-03-29T22:27:23.098Z,100416.16
2023-03-29T22:29:49.540Z,100412.28
2023-03-29T22:32:16.157Z,100403.56
2023-03-29T22:34:42.674Z,100404.34
2023-03-29T22:37:09.150Z,100398.94
2023-03-29T22:39:36.608Z,100392.44
2023-03-29T22:42:03.193Z,100388.53
2023-03-29T22:44:29.708Z,100385.53
2023-03-29T22:46:56.160Z,100380.81
2023-03-29T22:49:22.679Z,100368.44
2023-03-29T22:51:49.230Z,100365.31
2023-03-29T22:54:15.684Z,100358.16
2023-03-29T22:56:42.201Z,100350.84
2023-03-29T22:59:08.758Z,100355.25
2023-03-29T23:01:35.296Z,100335.84
2023-03-29T23:04:01.968Z,100335.19
2023-03-29T23:06:28.564Z,100338.53
2023-03-29T23:08:55.016Z,100326.66
2023-03-29T23:11:21.561Z,100331.16
2023-03-29T23:13:48.713Z,100313.31
2023-03-29T23:16:16.348Z,100322.84
2023-03-29T23:18:42.901Z,100320.31
2023-03-29T23:21:10.384Z,100314.47
2023-03-29T23:23:36.912Z,100305.28
2023-03-29T23:26:03.901Z,100310.47
2023-03-29T23:28:31.360Z,100306.94
2023-03-29T23:31:00.694Z,100309.41
2023-03-29T23:33:33.266Z,100306.94
2023-03-29T23:36:00.663Z,100295.06
2023-03-29T23:38:27.766Z,100285.84
2023-03-29T23:41:00.247Z,100281.06
2023-03-29T23:43:32.424Z,100277.88
2023-03-29T23:46:01.121Z,100273.66
2023-03-29T23:48:28.069Z,100266.91
2023-03-29T23:50:57.160Z,100263.59
2023-03-29T23:53:25.446Z,100264.44
2023-03-29T23:55:51.981Z,100259.38
2023-03-29T23:58:18.426Z,100254.44
